createdAt,value
2022-12-04T00:04:13.189Z,102682.09
2022-12-04T00:09:10.067Z,102680.47
2022-12-04T00:14:07.590Z,102681.16
2022-12-04T00:19:05.122Z,102685.38
2022-12-04T00:24:01.704Z,102690.81
2022-12-04T00:29:00.773Z,102697.84
2022-12-04T00:33:58.508Z,102696.88
2022-12-04T00:38:56.096Z,102689.88
2022-12-04T00:43:52.704Z,102688.19
2022-12-04T00:48:49.863Z,102695.72
2022-12-04T00:53:46.569Z,102698.13
2022-12-04T00:58:43.894Z,102701.03
2022-12-04T01:03:41.250Z,102693.31
2022-12-04T01:08:37.970Z,102701.09
2022-12-04T01:13:34.508Z,102699.41
2022-12-04T01:18:31.861Z,102690.41
2022-12-04T01:23:28.635Z,102692.78
2022-12-04T01:28:26.001Z,102696.31
2022-12-04T01:33:22.557Z,102700.47
2022-12-04T01:38:19.925Z,102694.44
2022-12-04T01:43:17.594Z,102686.69
2022-12-04T01:48:20.052Z,102685.69
2022-12-04T01:53:16.999Z,102679.34
2022-12-04T01:58:16.943Z,102680.91
2022-12-04T02:03:14.192Z,102668.56
2022-12-04T02:08:11.054Z,102669.19
2022-12-04T02:13:11.507Z,102660.53
2022-12-04T02:18:13.886Z,102663.00
2022-12-04T02:23:19.719Z,102667.25
2022-12-04T02:28:23.006Z,102661.41
2022-12-04T02:33:22.346Z,102670.13
2022-12-04T02:38:26.568Z,102670.13
2022-12-04T02:43:26.357Z,102670.91
2022-12-04T02:48:25.355Z,102675.00
2022-12-04T02:53:24.780Z,102671.13
2022-12-04T02:58:24.953Z,102666.09
2022-12-04T03:03:23.919Z,102675.94
2022-12-04T03:08:23.011Z,102680.00
2022-12-04T03:13:22.242Z,102685.63
2022-12-04T03:18:20.959Z,102674.81
2022-12-04T03:23:20.842Z,102673.06
2022-12-04T03:28:23.732Z,102663.38
2022-12-04T03:33:25.516Z,102671.94
2022-12-04T03:38:28.219Z,102637.53
2022-12-04T03:43:27.928Z,102656.69
2022-12-04T03:48:28.179Z,102648.69
2022-12-04T03:53:30.322Z,102652.69
2022-12-04T03:58:29.324Z,102656.63
2022-12-04T04:03:28.563Z,102658.06
2022-12-04T04:08:30.257Z,102650.41
2022-12-04T04:13:48.618Z,102661.91
2022-12-04T04:19:04.280Z,102664.56
2022-12-04T04:24:15.313Z,102659.88
2022-12-04T04:29:12.545Z,102624.84
2022-12-04T04:34:13.437Z,102659.38
2022-12-04T04:39:15.213Z,102659.88
2022-12-04T04:44:16.758Z,102668.31
2022-12-04T04:49:18.234Z,102670.06
2022-12-04T04:54:16.909Z,102664.91
2022-12-04T04:59:14.018Z,102672.19
2022-12-04T05:04:11.006Z,102679.00
2022-12-04T05:09:07.678Z,102667.94
2022-12-04T05:14:05.452Z,102676.63
2022-12-04T05:19:20.461Z,102659.28
2022-12-04T05:24:17.233Z,102665.22
2022-12-04T05:29:14.673Z,102660.41
2022-12-04T05:34:11.413Z,102676.94
2022-12-04T05:39:08.387Z,102661.25
2022-12-04T05:44:05.139Z,102682.66
2022-12-04T05:49:02.476Z,102684.28
2022-12-04T05:53:59.275Z,102689.41
2022-12-04T05:58:55.960Z,102698.25
2022-12-04T06:03:52.748Z,102699.72
2022-12-04T06:08:53.793Z,102696.59
2022-12-04T06:13:50.445Z,102697.03
2022-12-04T06:18:48.939Z,102703.97
2022-12-04T06:23:47.290Z,102716.16
2022-12-04T06:28:44.749Z,102713.34
2022-12-04T06:33:42.024Z,102704.16
2022-12-04T06:38:41.995Z,102709.34
2022-12-04T06:43:40.960Z,102723.19
2022-12-04T06:48:38.778Z,102729.34
2022-12-04T06:53:35.588Z,102726.03
2022-12-04T06:58:32.656Z,102722.56
2022-12-04T07:03:29.297Z,102714.91
2022-12-04T07:08:26.662Z,102728.25
2022-12-04T07:13:23.372Z,102733.13
2022-12-04T07:18:20.907Z,102730.63
2022-12-04T07:23:17.501Z,102740.03
2022-12-04T07:28:17.086Z,102745.56
2022-12-04T07:33:14.917Z,102740.69
2022-12-04T07:38:14.437Z,102743.03
2022-12-04T07:43:11.044Z,102739.13
2022-12-04T07:48:08.351Z,102740.34
2022-12-04T07:53:05.138Z,102742.66
2022-12-04T07:58:01.723Z,102751.78
2022-12-04T08:02:58.681Z,102753.47
2022-12-04T08:07:56.382Z,102745.19
2022-12-04T08:12:53.118Z,102743.09
2022-12-04T08:17:55.950Z,102741.16
2022-12-04T08:22:52.984Z,102749.84
2022-12-04T08:27:50.443Z,102734.91
2022-12-04T08:32:47.300Z,102733.94
2022-12-04T08:37:43.892Z,102730.44
2022-12-04T08:42:40.760Z,102727.41
2022-12-04T08:47:41.074Z,102729.13
2022-12-04T08:52:39.173Z,102710.34
2022-12-04T08:57:35.880Z,102705.63
2022-12-04T09:02:32.583Z,102712.16
2022-12-04T09:07:29.936Z,102718.91
2022-12-04T09:12:28.092Z,102708.25
2022-12-04T09:17:24.782Z,102707.88
2022-12-04T09:22:21.451Z,102693.66
2022-12-04T09:27:21.251Z,102687.94
2022-12-04T09:32:18.000Z,102691.31
2022-12-04T09:37:17.259Z,102677.19
2022-12-04T09:42:20.792Z,102659.56
2022-12-04T09:47:21.727Z,102646.13
2022-12-04T09:52:24.202Z,102636.78
2022-12-04T09:57:25.850Z,102641.38
2022-12-04T10:02:34.441Z,102634.56
2022-12-04T10:07:33.599Z,102627.31
2022-12-04T10:12:36.830Z,102619.13
2022-12-04T10:17:40.944Z,102619.84
2022-12-04T10:22:43.149Z,102615.44
2022-12-04T10:27:41.644Z,102609.56
2022-12-04T10:32:43.831Z,102613.53
2022-12-04T10:37:43.555Z,102616.00
2022-12-04T10:42:43.414Z,102589.47
2022-12-04T10:47:43.811Z,102606.31
2022-12-04T10:52:40.437Z,102600.22
2022-12-04T10:57:38.571Z,102598.47
2022-12-04T11:02:37.805Z,102598.28
2022-12-04T11:07:37.040Z,102593.19
2022-12-04T11:12:33.867Z,102583.81
2022-12-04T11:17:30.559Z,102581.72
2022-12-04T11:22:27.329Z,102577.03
2022-12-04T11:27:26.705Z,102564.91
2022-12-04T11:32:26.508Z,102564.03
2022-12-04T11:37:25.399Z,102553.03
2022-12-04T11:42:25.747Z,102565.31
2022-12-04T11:47:27.301Z,102551.50
2022-12-04T11:52:29.808Z,102554.59
2022-12-04T11:57:33.209Z,102549.75
2022-12-04T12:02:35.860Z,102540.63
2022-12-04T12:07:42.361Z,102541.84
2022-12-04T12:12:47.689Z,102546.09
2022-12-04T12:17:48.894Z,102522.28
2022-12-04T12:22:58.006Z,102543.00
2022-12-04T12:28:04.474Z,102538.25
2022-12-04T12:33:13.347Z,102493.94
2022-12-04T12:38:11.879Z,102523.44
2022-12-04T12:43:17.177Z,102519.72
2022-12-04T12:48:26.635Z,102522.81
2022-12-04T12:53:30.217Z,102523.09
2022-12-04T12:58:32.293Z,102523.16
2022-12-04T13:03:37.889Z,102531.22
2022-12-04T13:08:44.978Z,102527.47
2022-12-04T13:13:55.160Z,102538.72
2022-12-04T13:19:05.359Z,102534.09
2022-12-04T13:24:17.214Z,102544.19
2022-12-04T13:29:18.443Z,102541.78
2022-12-04T13:34:24.739Z,102541.13
2022-12-04T13:39:29.732Z,102545.25
2022-12-04T13:44:27.231Z,102544.34
2022-12-04T13:49:26.039Z,102540.66
2022-12-04T13:54:36.361Z,102540.59
2022-12-04T13:59:40.393Z,102538.06
2022-12-04T14:04:47.944Z,102544.25
2022-12-04T14:09:49.448Z,102536.56
2022-12-04T14:14:52.697Z,102543.19
2022-12-04T14:19:53.033Z,102535.13
2022-12-04T14:24:50.478Z,102549.56
2022-12-04T14:29:48.576Z,102553.72
2022-12-04T14:34:47.840Z,102551.19
2022-12-04T14:39:46.785Z,102559.09
2022-12-04T14:44:44.169Z,102552.50
2022-12-04T14:49:52.556Z,102559.75
2022-12-04T14:54:53.479Z,102553.53
2022-12-04T15:00:05.429Z,102562.97
2022-12-04T15:05:02.394Z,102555.88
2022-12-04T15:10:35.386Z,102562.94
2022-12-04T15:15:32.058Z,102560.47
2022-12-04T15:20:33.325Z,102561.81
2022-12-04T15:25:40.296Z,102565.09
2022-12-04T15:30:38.074Z,102565.81
2022-12-04T15:35:35.115Z,102560.59
2022-12-04T15:40:34.304Z,102574.38
2022-12-04T15:45:34.190Z,102582.00
2022-12-04T15:50:32.306Z,102584.22
2022-12-04T15:55:35.941Z,102585.91
2022-12-04T16:00:36.177Z,102589.94
2022-12-04T16:05:36.320Z,102598.22
2022-12-04T16:10:36.138Z,102593.69
2022-12-04T16:15:38.982Z,102588.13
2022-12-04T16:20:39.689Z,102593.66
2022-12-04T16:25:39.273Z,102595.22
2022-12-04T16:30:36.686Z,102591.31
2022-12-04T16:35:33.332Z,102596.59
2022-12-04T16:40:31.534Z,102598.47
2022-12-04T16:45:32.044Z,102592.78
2022-12-04T16:50:30.560Z,102597.31
2022-12-04T16:55:32.301Z,102591.97
2022-12-04T17:00:29.167Z,102594.91
2022-12-04T17:05:27.401Z,102589.72
2022-12-04T17:10:26.027Z,102586.25
2022-12-04T17:15:28.478Z,102591.72
2022-12-04T17:20:26.428Z,102589.38
2022-12-04T17:25:23.321Z,102586.44
2022-12-04T17:30:20.898Z,102591.78
2022-12-04T17:35:19.797Z,102599.06
2022-12-04T17:40:16.765Z,102608.88
2022-12-04T17:45:16.702Z,102596.75
2022-12-04T17:50:14.406Z,102581.06
2022-12-04T17:55:13.710Z,102604.81
2022-12-04T18:00:11.930Z,102603.94
2022-12-04T18:05:14.729Z,102584.53
2022-12-04T18:10:14.091Z,102613.25
2022-12-04T18:15:10.950Z,102607.25
2022-12-04T18:20:08.460Z,102622.00
2022-12-04T18:25:06.917Z,102620.03
2022-12-04T18:30:06.793Z,102626.75
2022-12-04T18:35:05.735Z,102607.94
2022-12-04T18:40:06.527Z,102622.66
2022-12-04T18:45:06.146Z,102611.63
2022-12-04T18:50:03.037Z,102628.50
2022-12-04T18:55:01.491Z,102632.47
2022-12-04T18:59:58.339Z,102633.34
2022-12-04T19:04:55.932Z,102630.09
2022-12-04T19:10:11.066Z,102635.34
2022-12-04T19:15:11.349Z,102634.66
2022-12-04T19:20:10.002Z,102638.41
2022-12-04T19:25:07.251Z,102634.53
2022-12-04T19:30:07.415Z,102640.91
2022-12-04T19:35:04.300Z,102642.19
2022-12-04T19:40:01.568Z,102639.69
2022-12-04T19:44:59.042Z,102647.56
2022-12-04T19:49:55.996Z,102644.09
2022-12-04T19:54:52.903Z,102642.53
2022-12-04T19:59:51.306Z,102640.59
2022-12-04T20:04:48.067Z,102635.13
2022-12-04T20:09:55.019Z,102630.78
2022-12-04T20:14:55.778Z,102629.34
2022-12-04T20:19:56.272Z,102620.44
2022-12-04T20:24:54.750Z,102620.34
2022-12-04T20:29:56.596Z,102613.88
2022-12-04T20:34:53.365Z,102605.69
2022-12-04T20:39:50.056Z,102607.84
2022-12-04T20:44:46.832Z,102595.44
2022-12-04T20:49:44.089Z,102599.47
2022-12-04T20:54:41.761Z,102600.41
2022-12-04T20:59:38.719Z,102600.47
2022-12-04T21:04:36.005Z,102610.31
2022-12-04T21:09:36.100Z,102604.06
2022-12-04T21:14:52.970Z,102605.44
2022-12-04T21:19:52.225Z,102603.50
2022-12-04T21:24:56.901Z,102602.84
2022-12-04T21:29:55.218Z,102597.81
2022-12-04T21:34:55.318Z,102598.25
2022-12-04T21:39:55.528Z,102592.09
2022-12-04T21:44:52.567Z,102591.19
2022-12-04T21:49:53.573Z,102588.56
2022-12-04T21:54:55.123Z,102592.44
2022-12-04T21:59:52.087Z,102597.78
2022-12-04T22:04:48.853Z,102588.81
2022-12-04T22:09:45.567Z,102583.50
2022-12-04T22:14:44.937Z,102576.66
2022-12-04T22:19:45.859Z,102572.25
2022-12-04T22:24:42.543Z,102586.69
2022-12-04T22:29:50.271Z,102583.63
2022-12-04T22:34:48.605Z,102581.41
2022-12-04T22:39:45.314Z,102575.78
2022-12-04T22:44:41.957Z,102569.22
2022-12-04T22:49:41.697Z,102564.72
2022-12-04T22:54:40.628Z,102566.31
2022-12-04T22:59:37.230Z,102555.63
2022-12-04T23:04:33.987Z,102564.91
2022-12-04T23:09:31.731Z,102562.31
2022-12-04T23:14:29.107Z,102566.88
2022-12-04T23:19:25.790Z,102570.84
2022-12-04T23:24:24.952Z,102564.50
2022-12-04T23:29:52.856Z,102563.03
2022-12-04T23:34:39.117Z,102565.56
2022-12-04T23:39:38.765Z,102558.53
2022-12-04T23:44:36.710Z,102553.50
2022-12-04T23:49:33.421Z,102552.88
2022-12-04T23:54:35.150Z,102554.84
2022-12-04T23:59:32.010Z,102556.03
